Terminal Aerodrome Forecast
Issued by NWS

Home | Current Version | Previous Version | Graphics & Text | Print | Product List | Glossary On
Versions: 1 2 3 4 5 6 7 8 9 10 11 12 13 14 15
000
FTUS43 KMPX 181700
TAFRWF
TAF
KRWF 181729Z 1818/1918 14019G26KT P6SM SCT070 BKN100
     FM190000 13015G24KT P6SM BKN100
     FM191000 16017G27KT P6SM SCT050 BKN100
     FM191500 19015G21KT P6SM VCSH SCT020 OVC040=

USA.gov is the U.S. government's official web portal to all federal, state and local government web resources and services.